createdAt,value
2022-10-10T00:01:20.400Z,74.60
2022-10-10T00:03:47.696Z,74.70
2022-10-10T00:06:15.631Z,74.70
2022-10-10T00:08:43.573Z,74.60
2022-10-10T00:11:11.334Z,74.70
2022-10-10T00:13:38.299Z,74.60
2022-10-10T00:16:05.709Z,74.60
2022-10-10T00:18:33.183Z,74.70
2022-10-10T00:20:59.979Z,74.70
2022-10-10T00:23:26.792Z,74.70
2022-10-10T00:25:53.666Z,74.70
2022-10-10T00:28:20.467Z,74.60
2022-10-10T00:30:47.189Z,74.70
2022-10-10T00:33:13.952Z,74.60
2022-10-10T00:35:41.115Z,74.70
2022-10-10T00:38:08.449Z,74.70
2022-10-10T00:40:35.322Z,74.70
2022-10-10T00:43:02.240Z,74.60
2022-10-10T00:45:32.100Z,74.60
2022-10-10T00:48:18.218Z,74.60
2022-10-10T00:50:48.920Z,75.00
2022-10-10T00:53:18.614Z,74.90
2022-10-10T00:55:46.240Z,74.80
2022-10-10T00:58:14.077Z,74.80
2022-10-10T01:00:40.814Z,74.90
2022-10-10T01:03:07.513Z,75.00
2022-10-10T01:05:35.006Z,75.40
2022-10-10T01:08:04.346Z,75.20
2022-10-10T01:10:38.630Z,75.20
2022-10-10T01:13:28.186Z,75.50
2022-10-10T01:16:01.465Z,76.50
2022-10-10T01:18:34.047Z,75.30
2022-10-10T01:21:09.298Z,75.50
2022-10-10T01:23:50.723Z,75.50
2022-10-10T01:26:41.974Z,75.60
2022-10-10T01:29:23.124Z,75.90
2022-10-10T01:31:54.173Z,75.80
2022-10-10T01:34:27.196Z,75.80
2022-10-10T01:37:11.954Z,75.80
2022-10-10T01:40:04.245Z,76.10
2022-10-10T01:42:56.441Z,76.40
2022-10-10T01:45:24.108Z,76.40
2022-10-10T01:47:52.823Z,76.20
2022-10-10T01:50:24.324Z,76.10
2022-10-10T01:52:51.085Z,76.30
2022-10-10T01:55:17.874Z,76.20
2022-10-10T01:58:03.213Z,76.40
2022-10-10T02:00:35.245Z,76.40
2022-10-10T02:03:10.818Z,76.60
2022-10-10T02:05:40.370Z,76.50
2022-10-10T02:08:13.799Z,76.70
2022-10-10T02:10:47.886Z,76.60
2022-10-10T02:13:16.489Z,76.70
2022-10-10T02:15:48.645Z,76.60
2022-10-10T02:18:18.639Z,76.80
2022-10-10T02:20:46.099Z,76.70
2022-10-10T02:23:16.257Z,76.80
2022-10-10T02:25:47.462Z,76.80
2022-10-10T02:28:16.875Z,76.90
2022-10-10T02:30:46.597Z,77.40
2022-10-10T02:33:19.332Z,77.00
2022-10-10T02:35:49.342Z,77.10
2022-10-10T02:38:17.264Z,77.00
2022-10-10T02:40:46.352Z,77.00
2022-10-10T02:43:15.341Z,77.10
2022-10-10T02:45:42.870Z,77.20
2022-10-10T02:48:09.743Z,77.30
2022-10-10T02:50:36.520Z,77.20
2022-10-10T02:53:03.159Z,77.30
2022-10-10T02:55:29.802Z,77.20
2022-10-10T02:57:56.400Z,77.30
2022-10-10T03:00:23.035Z,77.30
2022-10-10T03:02:50.067Z,77.30
2022-10-10T03:05:17.019Z,77.30
2022-10-10T03:07:43.627Z,77.30
2022-10-10T03:10:10.396Z,77.30
2022-10-10T03:12:37.217Z,77.30
2022-10-10T03:15:09.189Z,77.40
2022-10-10T03:17:37.978Z,77.40
2022-10-10T03:20:05.145Z,77.40
2022-10-10T03:22:31.772Z,77.60
2022-10-10T03:24:58.434Z,77.60
2022-10-10T03:27:25.171Z,77.70
2022-10-10T03:29:52.043Z,77.80
2022-10-10T03:32:18.622Z,77.70
2022-10-10T03:34:45.559Z,77.70
2022-10-10T03:37:12.274Z,77.70
2022-10-10T03:39:38.899Z,78.60
2022-10-10T03:42:05.549Z,77.70
2022-10-10T03:44:32.270Z,77.70
2022-10-10T03:46:58.932Z,77.80
2022-10-10T03:49:25.681Z,77.70
2022-10-10T03:51:53.522Z,77.70
2022-10-10T03:54:20.500Z,77.80
2022-10-10T03:56:47.146Z,77.80
2022-10-10T03:59:13.775Z,77.90
2022-10-10T04:01:40.521Z,78.00
2022-10-10T04:04:07.205Z,78.00
2022-10-10T04:06:33.890Z,78.10
2022-10-10T04:09:00.565Z,78.10
2022-10-10T04:11:27.385Z,78.20
2022-10-10T04:13:54.002Z,78.80
2022-10-10T04:16:20.614Z,78.40
2022-10-10T04:18:47.219Z,78.40
2022-10-10T04:21:13.950Z,78.50
2022-10-10T04:23:41.189Z,78.60
2022-10-10T04:26:08.264Z,78.60
2022-10-10T04:28:35.074Z,78.70
2022-10-10T04:31:01.721Z,78.80
2022-10-10T04:33:28.454Z,78.80
2022-10-10T04:35:55.069Z,78.80
2022-10-10T04:38:22.661Z,78.90
2022-10-10T04:40:50.800Z,79.00
2022-10-10T04:43:18.414Z,79.10
2022-10-10T04:45:45.087Z,79.20
2022-10-10T04:48:11.742Z,79.00
2022-10-10T04:50:38.633Z,79.10
2022-10-10T04:53:05.247Z,79.10
2022-10-10T04:55:31.872Z,79.10
2022-10-10T04:57:58.705Z,79.30
2022-10-10T05:00:25.474Z,79.40
2022-10-10T05:02:52.421Z,79.40
2022-10-10T05:05:19.216Z,79.40
2022-10-10T05:07:45.836Z,79.50
2022-10-10T05:10:12.464Z,79.60
2022-10-10T05:12:39.114Z,79.60
2022-10-10T05:15:06.203Z,79.70
2022-10-10T05:17:32.823Z,79.70
2022-10-10T05:19:59.430Z,79.80
2022-10-10T05:22:26.061Z,79.90
2022-10-10T05:24:52.766Z,80.00
2022-10-10T05:27:19.382Z,80.00
2022-10-10T05:29:45.989Z,80.00
2022-10-10T05:32:12.666Z,80.10
2022-10-10T05:34:39.308Z,80.20
2022-10-10T05:37:05.963Z,80.20
2022-10-10T05:39:32.660Z,80.10
2022-10-10T05:41:59.309Z,80.30
2022-10-10T05:44:26.061Z,80.30
2022-10-10T05:46:52.720Z,80.40
2022-10-10T05:49:19.680Z,80.50
2022-10-10T05:51:46.308Z,80.70
2022-10-10T05:54:13.002Z,80.80
2022-10-10T05:56:39.598Z,80.90
2022-10-10T05:59:06.440Z,81.10
2022-10-10T06:01:33.321Z,81.30
2022-10-10T06:03:59.988Z,81.50
2022-10-10T06:06:26.617Z,81.60
2022-10-10T06:08:53.441Z,81.80
2022-10-10T06:11:20.665Z,82.00
2022-10-10T06:13:49.621Z,82.20
2022-10-10T06:16:16.512Z,82.40
2022-10-10T06:18:43.154Z,82.50
2022-10-10T06:21:11.923Z,82.60
2022-10-10T06:23:38.968Z,83.10
2022-10-10T06:26:05.650Z,82.90
2022-10-10T06:28:33.232Z,83.30
2022-10-10T06:31:01.641Z,83.40
2022-10-10T06:33:28.744Z,83.60
2022-10-10T06:35:55.409Z,83.60
2022-10-10T06:38:22.087Z,83.70
2022-10-10T06:40:48.700Z,83.80
2022-10-10T06:43:16.676Z,83.90
2022-10-10T06:45:46.450Z,84.20
2022-10-10T06:48:14.796Z,84.50
2022-10-10T06:50:41.694Z,84.70
2022-10-10T06:53:08.391Z,85.00
2022-10-10T06:55:35.069Z,85.40
2022-10-10T06:58:01.745Z,85.70
2022-10-10T07:00:28.428Z,86.10
2022-10-10T07:02:55.071Z,86.60
2022-10-10T07:05:21.703Z,86.90
2022-10-10T07:07:48.325Z,87.50
2022-10-10T07:10:15.748Z,87.80
2022-10-10T07:12:45.065Z,87.70
2022-10-10T07:15:12.430Z,87.60
2022-10-10T07:17:39.501Z,87.30
2022-10-10T07:20:06.828Z,86.30
2022-10-10T07:22:33.703Z,85.50
2022-10-10T07:25:00.346Z,84.30
2022-10-10T07:27:27.277Z,82.80
2022-10-10T07:29:53.887Z,81.40
2022-10-10T07:32:20.483Z,80.40
2022-10-10T07:34:47.123Z,79.70
2022-10-10T07:37:13.731Z,79.10
2022-10-10T07:39:40.476Z,78.90
2022-10-10T07:42:07.088Z,78.90
2022-10-10T07:44:34.702Z,79.40
2022-10-10T07:47:01.690Z,80.00
2022-10-10T07:49:28.408Z,81.00
2022-10-10T07:52:00.492Z,82.30
2022-10-10T07:54:29.025Z,84.30
2022-10-10T07:56:55.992Z,84.20
2022-10-10T07:59:23.649Z,84.90
2022-10-10T08:01:51.205Z,84.60
2022-10-10T08:04:19.224Z,85.00
2022-10-10T08:06:46.127Z,84.70
2022-10-10T08:09:12.789Z,84.20
2022-10-10T08:11:39.684Z,82.50
2022-10-10T08:14:06.521Z,81.20
2022-10-10T08:16:33.145Z,80.50
2022-10-10T08:18:59.832Z,79.30
2022-10-10T08:21:26.665Z,78.80
2022-10-10T08:23:53.318Z,76.90
2022-10-10T08:26:20.144Z,76.10
2022-10-10T08:28:48.474Z,75.00
2022-10-10T08:31:17.588Z,73.70
2022-10-10T08:33:46.133Z,72.60
2022-10-10T08:36:17.418Z,71.60
2022-10-10T08:38:44.665Z,70.40
2022-10-10T08:41:42.675Z,70.20
2022-10-10T08:44:21.315Z,69.00
2022-10-10T08:47:03.173Z,69.40
2022-10-10T08:49:35.028Z,68.60
2022-10-10T08:52:13.584Z,68.70
2022-10-10T08:54:42.550Z,68.70
2022-10-10T08:57:40.377Z,69.10
2022-10-10T09:00:16.349Z,67.90
2022-10-10T09:02:57.308Z,68.70
2022-10-10T09:05:34.838Z,67.90
2022-10-10T09:08:27.615Z,67.50
2022-10-10T09:11:09.514Z,67.50
2022-10-10T09:13:40.322Z,67.70
2022-10-10T09:16:18.240Z,67.80
2022-10-10T09:19:14.781Z,66.70
2022-10-10T09:21:45.115Z,66.90
2022-10-10T09:24:32.359Z,67.20
2022-10-10T09:27:09.950Z,66.00
2022-10-10T09:29:53.798Z,65.80
2022-10-10T09:32:28.657Z,65.30
2022-10-10T09:35:16.606Z,65.50
2022-10-10T09:37:48.214Z,65.00
2022-10-10T09:40:47.427Z,65.30
2022-10-10T09:43:19.344Z,63.80
2022-10-10T09:45:58.565Z,64.20
2022-10-10T09:48:31.368Z,63.40
2022-10-10T09:50:58.718Z,63.60
2022-10-10T09:53:25.512Z,64.00
2022-10-10T09:55:53.755Z,63.80
2022-10-10T09:58:41.292Z,63.20
2022-10-10T10:01:23.237Z,61.20
2022-10-10T10:04:29.800Z,60.50
2022-10-10T10:07:17.492Z,60.10
2022-10-10T10:09:52.105Z,59.30
2022-10-10T10:12:31.909Z,58.90
2022-10-10T10:15:02.983Z,57.50
2022-10-10T10:17:30.231Z,57.60
2022-10-10T10:19:56.994Z,57.50
2022-10-10T10:22:38.055Z,56.80
2022-10-10T10:25:35.377Z,55.90
2022-10-10T10:28:11.246Z,56.00
2022-10-10T10:30:39.154Z,56.00
2022-10-10T10:33:08.794Z,56.50
2022-10-10T10:35:46.156Z,56.80
2022-10-10T10:38:44.965Z,56.80
2022-10-10T10:41:22.709Z,57.20
2022-10-10T10:44:31.370Z,57.00
2022-10-10T10:46:57.917Z,56.50
2022-10-10T10:49:53.504Z,56.90
2022-10-10T10:52:37.889Z,56.80
2022-10-10T10:55:32.924Z,57.30
2022-10-10T10:58:57.893Z,57.10
2022-10-10T11:01:23.497Z,57.50
2022-10-10T11:05:16.616Z,57.60
2022-10-10T11:07:20.695Z,57.40
2022-10-10T11:09:51.014Z,58.00
2022-10-10T11:12:26.799Z,58.10
2022-10-10T11:14:58.232Z,58.30
2022-10-10T11:17:38.569Z,58.50
2022-10-10T11:20:26.332Z,58.60
2022-10-10T11:23:09.307Z,59.00
2022-10-10T11:25:57.183Z,59.20
2022-10-10T11:28:35.732Z,59.10
2022-10-10T11:31:16.070Z,59.60
2022-10-10T11:33:46.855Z,59.90
2022-10-10T11:36:19.579Z,59.80
2022-10-10T11:38:51.272Z,59.80
2022-10-10T11:41:19.542Z,59.80
2022-10-10T11:43:51.439Z,60.00
2022-10-10T11:46:32.910Z,60.00
2022-10-10T11:49:11.776Z,60.00
2022-10-10T11:52:21.539Z,60.10
2022-10-10T11:55:28.598Z,60.30
2022-10-10T11:58:04.501Z,60.50
2022-10-10T12:00:40.717Z,60.40
2022-10-10T12:03:09.195Z,60.50
2022-10-10T12:05:40.325Z,60.30
2022-10-10T12:08:17.954Z,60.20
2022-10-10T12:10:52.321Z,60.00
2022-10-10T12:13:47.385Z,60.30
2022-10-10T12:16:20.520Z,60.10
2022-10-10T12:18:53.445Z,60.30
2022-10-10T12:21:24.771Z,60.30
2022-10-10T12:24:10.041Z,60.50
2022-10-10T12:26:54.702Z,60.40
2022-10-10T12:29:50.115Z,60.60
2022-10-10T12:32:20.698Z,60.60
2022-10-10T12:34:50.334Z,60.80
2022-10-10T12:37:26.383Z,61.10
2022-10-10T12:40:05.258Z,61.60
2022-10-10T12:42:40.474Z,62.00
2022-10-10T12:45:28.815Z,61.40
2022-10-10T12:48:27.876Z,61.00
2022-10-10T12:51:01.855Z,61.20
2022-10-10T12:53:32.826Z,60.90
2022-10-10T12:56:01.787Z,61.10
2022-10-10T12:58:34.710Z,61.10
2022-10-10T13:01:05.938Z,61.10
2022-10-10T13:03:39.986Z,61.20
2022-10-10T13:06:18.042Z,61.20
2022-10-10T13:08:45.367Z,61.50
2022-10-10T13:11:15.103Z,61.60
2022-10-10T13:13:53.172Z,61.40
2022-10-10T13:16:27.595Z,61.80
2022-10-10T13:19:00.216Z,61.60
2022-10-10T13:21:33.949Z,61.50
2022-10-10T13:24:04.205Z,61.60
2022-10-10T13:26:43.822Z,61.60
2022-10-10T13:29:24.195Z,61.60
2022-10-10T13:31:58.254Z,61.70
2022-10-10T13:34:28.085Z,61.70
2022-10-10T13:37:01.191Z,61.70
2022-10-10T13:39:29.929Z,61.90
2022-10-10T13:41:57.229Z,62.00
2022-10-10T13:44:33.560Z,62.20
2022-10-10T13:47:38.736Z,62.10
2022-10-10T13:50:22.913Z,62.20
2022-10-10T13:52:49.741Z,62.10
2022-10-10T13:55:25.373Z,62.20
2022-10-10T13:57:58.264Z,62.20
2022-10-10T14:00:30.399Z,62.30
2022-10-10T14:02:57.083Z,62.50
2022-10-10T14:05:31.442Z,62.90
2022-10-10T14:07:58.798Z,63.20
2022-10-10T14:10:27.962Z,64.10
2022-10-10T14:12:59.273Z,63.90
2022-10-10T14:15:37.067Z,63.80
2022-10-10T14:18:21.534Z,63.70
2022-10-10T14:20:49.138Z,63.60
2022-10-10T14:23:16.019Z,63.60
2022-10-10T14:25:45.182Z,63.60
2022-10-10T14:28:21.128Z,63.70
2022-10-10T14:30:48.125Z,63.90
2022-10-10T14:33:16.983Z,63.70
2022-10-10T14:35:45.152Z,63.90
2022-10-10T14:38:13.800Z,64.00
2022-10-10T14:40:45.430Z,64.00
2022-10-10T14:43:13.108Z,64.10
2022-10-10T14:45:40.383Z,63.90
2022-10-10T14:50:56.880Z,64.20
2022-10-10T14:53:23.527Z,64.20
2022-10-10T14:55:55.231Z,64.30
2022-10-10T14:58:23.066Z,64.40
2022-10-10T15:00:51.758Z,64.60
2022-10-10T15:03:18.508Z,65.00
2022-10-10T15:05:45.192Z,65.40
2022-10-10T15:08:14.369Z,65.70
2022-10-10T15:10:41.991Z,66.20
2022-10-10T15:13:11.048Z,66.60
2022-10-10T15:15:38.031Z,66.90
2022-10-10T15:18:05.007Z,67.10
2022-10-10T15:20:31.800Z,67.50
2022-10-10T15:23:00.039Z,67.60
2022-10-10T15:25:33.126Z,68.20
2022-10-10T15:28:04.206Z,68.40
2022-10-10T15:30:31.233Z,68.90
2022-10-10T15:32:57.828Z,69.40
2022-10-10T15:35:25.574Z,69.80
2022-10-10T15:37:52.995Z,70.70
2022-10-10T15:40:22.120Z,71.20
2022-10-10T15:42:50.172Z,72.00
2022-10-10T15:45:31.317Z,72.30
2022-10-10T15:48:04.582Z,72.40
2022-10-10T15:50:32.359Z,72.30
2022-10-10T15:52:58.967Z,72.70
2022-10-10T15:55:26.161Z,73.10
2022-10-10T15:57:52.869Z,73.40
2022-10-10T16:00:19.599Z,73.80
2022-10-10T16:02:46.275Z,74.30
2022-10-10T16:05:13.011Z,74.60
2022-10-10T16:07:48.056Z,75.20
2022-10-10T16:10:15.614Z,75.60
2022-10-10T16:12:42.303Z,76.10
2022-10-10T16:15:09.367Z,76.30
2022-10-10T16:17:36.280Z,76.60
2022-10-10T16:41:46.963Z,81.20
2022-10-10T16:44:15.157Z,80.70
2022-10-10T16:46:41.769Z,78.90
2022-10-10T16:49:10.081Z,79.10
2022-10-10T16:51:37.439Z,80.00
2022-10-10T16:54:05.742Z,80.20
2022-10-10T16:56:32.872Z,80.70
2022-10-10T16:59:00.264Z,80.70
2022-10-10T17:01:27.961Z,81.00
2022-10-10T17:03:55.203Z,81.50
2022-10-10T17:06:23.296Z,82.10
2022-10-10T17:08:52.502Z,82.80
2022-10-10T17:11:20.562Z,83.80
2022-10-10T17:13:48.146Z,84.70
2022-10-10T17:19:05.087Z,86.00
2022-10-10T17:21:31.778Z,86.40
2022-10-10T17:23:58.940Z,86.80
2022-10-10T17:26:27.752Z,87.20
2022-10-10T17:28:56.088Z,87.70
2022-10-10T17:31:23.537Z,88.20
2022-10-10T17:33:54.026Z,88.50
2022-10-10T17:36:23.584Z,88.80
2022-10-10T17:38:50.864Z,89.10
2022-10-10T17:41:18.660Z,89.20
2022-10-10T17:43:46.021Z,89.60
2022-10-10T17:46:34.430Z,89.60
2022-10-10T17:49:02.753Z,89.70
2022-10-10T17:51:29.383Z,89.90
2022-10-10T17:53:59.513Z,90.00
2022-10-10T17:56:26.473Z,90.00
2022-10-10T17:58:53.106Z,90.10
2022-10-10T18:01:20.282Z,90.20
2022-10-10T18:03:48.152Z,90.20
2022-10-10T18:06:18.530Z,90.30
2022-10-10T18:08:47.723Z,90.30
2022-10-10T18:11:17.024Z,90.40
2022-10-10T18:13:44.237Z,90.40
2022-10-10T18:16:14.199Z,90.50
2022-10-10T18:18:46.809Z,90.50
2022-10-10T18:21:16.646Z,90.60
2022-10-10T18:23:43.306Z,90.60
2022-10-10T18:26:15.209Z,90.70
2022-10-10T18:28:42.956Z,90.70
2022-10-10T18:31:18.464Z,90.80
2022-10-10T18:33:45.518Z,90.90
2022-10-10T18:36:15.286Z,90.90
2022-10-10T18:38:42.283Z,90.90
2022-10-10T18:41:14.025Z,91.00
2022-10-10T18:43:42.381Z,91.00
2022-10-10T18:46:11.136Z,91.10
2022-10-10T18:48:38.567Z,91.00
2022-10-10T18:51:21.620Z,91.10
2022-10-10T18:53:48.467Z,91.10
2022-10-10T18:56:24.169Z,91.20
2022-10-10T18:58:53.760Z,91.20
2022-10-10T19:01:24.855Z,91.20
2022-10-10T19:03:52.602Z,91.20
2022-10-10T19:06:19.839Z,91.30
2022-10-10T19:08:46.699Z,91.30
2022-10-10T19:11:30.786Z,91.20
2022-10-10T19:13:59.951Z,91.10
2022-10-10T19:16:27.235Z,91.30
2022-10-10T19:18:58.350Z,91.30
2022-10-10T19:21:28.708Z,91.30
2022-10-10T19:23:55.684Z,91.40
2022-10-10T19:26:22.552Z,91.40
2022-10-10T19:28:49.255Z,91.40
2022-10-10T19:31:18.099Z,91.50
2022-10-10T19:33:45.732Z,91.50
2022-10-10T19:36:13.421Z,91.60
2022-10-10T19:38:42.109Z,91.60
2022-10-10T19:41:14.458Z,91.60
2022-10-10T19:43:42.700Z,91.60
2022-10-10T19:46:12.579Z,91.70
2022-10-10T19:48:39.842Z,91.70
2022-10-10T19:51:09.730Z,91.70
2022-10-10T19:53:37.483Z,91.70
2022-10-10T19:56:07.269Z,91.60
2022-10-10T19:58:36.853Z,91.50
2022-10-10T20:01:13.125Z,91.50
2022-10-10T20:03:39.990Z,91.30
2022-10-10T20:06:07.501Z,91.20
2022-10-10T20:08:34.687Z,91.10
2022-10-10T20:11:01.980Z,91.10
2022-10-10T20:13:28.776Z,91.00
2022-10-10T20:15:59.592Z,91.00
2022-10-10T20:18:26.411Z,90.90
2022-10-10T20:20:53.150Z,90.90
2022-10-10T20:23:23.237Z,90.90
2022-10-10T20:25:50.066Z,91.30
2022-10-10T20:28:18.395Z,90.80
2022-10-10T20:30:50.927Z,90.80
2022-10-10T20:33:21.387Z,90.80
2022-10-10T20:35:52.388Z,90.70
2022-10-10T20:38:22.559Z,90.60
2022-10-10T20:40:49.165Z,90.60
2022-10-10T20:43:16.347Z,90.70
2022-10-10T20:45:43.049Z,90.70
2022-10-10T20:48:09.922Z,90.70
2022-10-10T20:50:37.673Z,90.70
2022-10-10T20:53:05.752Z,90.70
2022-10-10T20:55:32.920Z,90.70
2022-10-10T20:58:00.114Z,90.60
2022-10-10T21:00:26.982Z,90.60
2022-10-10T21:02:55.562Z,90.60
2022-10-10T21:05:22.199Z,90.60
2022-10-10T21:07:48.802Z,90.50
2022-10-10T21:10:15.557Z,90.50
2022-10-10T21:12:42.155Z,90.50
2022-10-10T21:15:09.253Z,90.50
2022-10-10T21:17:35.923Z,90.50
2022-10-10T21:20:02.638Z,90.50
2022-10-10T21:22:29.264Z,90.50
2022-10-10T21:24:55.874Z,90.50
2022-10-10T21:27:22.536Z,90.50
2022-10-10T21:29:49.230Z,90.50
2022-10-10T21:32:15.894Z,90.50
2022-10-10T21:34:42.797Z,90.50
2022-10-10T21:37:09.407Z,90.50
2022-10-10T21:39:36.090Z,90.60
2022-10-10T21:42:02.801Z,90.60
2022-10-10T21:44:29.440Z,90.50
2022-10-10T21:46:56.125Z,90.60
2022-10-10T21:49:22.762Z,90.70
2022-10-10T21:51:50.011Z,90.70
2022-10-10T21:54:16.725Z,90.70
2022-10-10T21:56:44.087Z,90.60
2022-10-10T21:59:11.534Z,90.60
2022-10-10T22:01:38.431Z,90.50
2022-10-10T22:04:05.871Z,90.50
2022-10-10T22:06:32.606Z,90.50
2022-10-10T22:09:00.763Z,90.50
2022-10-10T22:11:28.397Z,90.60
2022-10-10T22:13:55.373Z,90.60
2022-10-10T22:16:22.571Z,90.60
2022-10-10T22:18:54.293Z,90.50
2022-10-10T22:21:21.023Z,90.60
2022-10-10T22:23:47.637Z,90.50
2022-10-10T22:26:15.957Z,90.50
2022-10-10T22:28:44.002Z,90.50
2022-10-10T22:31:13.303Z,90.50
2022-10-10T22:33:40.608Z,90.60
2022-10-10T22:36:08.793Z,90.50
2022-10-10T22:38:41.530Z,90.50
2022-10-10T22:41:09.369Z,90.60
2022-10-10T22:43:36.190Z,90.50
2022-10-10T22:46:03.625Z,90.60
2022-10-10T22:48:30.549Z,90.60
2022-10-10T22:51:11.987Z,90.70
2022-10-10T22:53:40.475Z,90.80
2022-10-10T22:56:08.433Z,90.70
2022-10-10T22:58:35.271Z,90.80
2022-10-10T23:01:07.171Z,90.80
2022-10-10T23:03:35.221Z,90.90
2022-10-10T23:06:02.862Z,90.80
2022-10-10T23:08:30.015Z,90.80
2022-10-10T23:10:56.681Z,90.80
2022-10-10T23:13:23.280Z,90.80
2022-10-10T23:15:49.918Z,91.20
2022-10-10T23:18:16.648Z,90.80
2022-10-10T23:20:46.234Z,90.90
2022-10-10T23:23:13.674Z,90.90
2022-10-10T23:25:41.580Z,90.90
2022-10-10T23:28:08.513Z,90.90
2022-10-10T23:30:38.851Z,90.90
2022-10-10T23:33:06.212Z,91.00
2022-10-10T23:35:33.495Z,91.00
2022-10-10T23:38:00.421Z,91.00
2022-10-10T23:40:27.134Z,91.00
2022-10-10T23:42:53.907Z,91.00
2022-10-10T23:45:21.350Z,91.00
2022-10-10T23:47:47.961Z,91.00
2022-10-10T23:50:14.829Z,91.10
2022-10-10T23:52:41.406Z,91.10
2022-10-10T23:55:08.521Z,91.10
2022-10-10T23:57:35.159Z,91.10
